createdAt,value
2022-12-09T00:01:24.325Z,100.00
2022-12-09T00:06:29.254Z,100.00
2022-12-09T00:11:32.046Z,100.00
2022-12-09T00:16:36.309Z,100.00
2022-12-09T00:21:39.477Z,100.00
2022-12-09T00:26:44.333Z,100.00
2022-12-09T00:31:48.985Z,100.00
2022-12-09T00:36:54.648Z,100.00
2022-12-09T00:42:00.967Z,100.00
2022-12-09T00:47:06.954Z,100.00
2022-12-09T00:52:11.281Z,100.00
2022-12-09T00:57:14.127Z,100.00
2022-12-09T01:02:19.924Z,100.00
2022-12-09T01:07:23.785Z,100.00
2022-12-09T01:12:28.495Z,100.00
2022-12-09T01:17:35.725Z,100.00
2022-12-09T01:22:43.051Z,100.00
2022-12-09T01:27:50.738Z,100.00
2022-12-09T01:32:55.388Z,100.00
2022-12-09T01:37:58.637Z,100.00
2022-12-09T01:43:03.558Z,100.00
2022-12-09T01:48:14.202Z,100.00
2022-12-09T01:53:24.091Z,100.00
2022-12-09T01:58:27.822Z,100.00
2022-12-09T02:03:32.538Z,100.00
2022-12-09T02:08:35.863Z,100.00
2022-12-09T02:13:48.478Z,100.00
2022-12-09T02:19:01.643Z,100.00
2022-12-09T02:24:09.692Z,100.00
2022-12-09T02:29:28.329Z,100.00
2022-12-09T02:34:38.795Z,100.00
2022-12-09T02:39:51.700Z,100.00
2022-12-09T02:44:59.516Z,100.00
2022-12-09T02:50:08.888Z,100.00
2022-12-09T02:55:16.510Z,100.00
2022-12-09T03:00:20.227Z,100.00
2022-12-09T03:05:29.238Z,100.00
2022-12-09T03:10:38.521Z,100.00
2022-12-09T03:15:46.066Z,100.00
2022-12-09T03:20:51.962Z,100.00
2022-12-09T03:25:56.777Z,100.00
2022-12-09T03:31:04.422Z,100.00
2022-12-09T03:36:13.146Z,100.00
2022-12-09T03:41:21.863Z,100.00
2022-12-09T03:46:25.452Z,100.00
2022-12-09T03:51:35.880Z,100.00
2022-12-09T03:56:42.995Z,100.00
2022-12-09T04:01:48.152Z,100.00
2022-12-09T04:06:55.091Z,100.00
2022-12-09T04:11:57.972Z,100.00
2022-12-09T04:17:01.063Z,100.00
2022-12-09T04:22:06.096Z,100.00
2022-12-09T04:27:08.910Z,100.00
2022-12-09T04:32:11.901Z,100.00
2022-12-09T04:37:16.679Z,100.00
2022-12-09T04:42:19.883Z,100.00
2022-12-09T04:47:23.003Z,100.00
2022-12-09T04:52:27.623Z,100.00
2022-12-09T04:57:30.874Z,100.00
2022-12-09T05:02:34.272Z,100.00
2022-12-09T05:07:38.817Z,100.00
2022-12-09T05:12:42.073Z,100.00
2022-12-09T05:17:45.252Z,100.00
2022-12-09T05:22:52.606Z,100.00
2022-12-09T05:27:55.667Z,100.00
2022-12-09T05:32:58.641Z,100.00
2022-12-09T05:38:03.428Z,100.00
2022-12-09T05:43:06.745Z,100.00
2022-12-09T05:48:09.905Z,100.00
2022-12-09T05:53:14.085Z,100.00
2022-12-09T05:58:17.218Z,100.00
2022-12-09T06:03:21.498Z,100.00
2022-12-09T06:08:26.119Z,100.00
2022-12-09T06:13:29.781Z,100.00
2022-12-09T06:18:33.167Z,100.00
2022-12-09T06:23:39.176Z,100.00
2022-12-09T06:28:42.396Z,100.00
2022-12-09T06:33:54.724Z,100.00
2022-12-09T06:39:07.690Z,100.00
2022-12-09T06:44:17.211Z,100.00
2022-12-09T06:49:24.824Z,100.00
2022-12-09T06:54:29.650Z,100.00
2022-12-09T06:59:32.895Z,100.00
2022-12-09T07:04:36.505Z,100.00
2022-12-09T07:09:41.197Z,100.00
2022-12-09T07:14:44.380Z,100.00
2022-12-09T07:19:48.100Z,100.00
2022-12-09T07:24:52.852Z,100.00
2022-12-09T07:29:56.026Z,100.00
2022-12-09T07:34:58.852Z,100.00
2022-12-09T07:40:04.035Z,100.00
2022-12-09T07:45:08.213Z,100.00
2022-12-09T07:50:12.391Z,100.00
2022-12-09T07:55:16.648Z,100.00
2022-12-09T08:00:20.786Z,100.00
2022-12-09T08:05:23.863Z,100.00
2022-12-09T08:10:28.222Z,100.00
2022-12-09T08:15:31.590Z,100.00
2022-12-09T08:20:34.496Z,100.00
2022-12-09T08:25:38.810Z,100.00
2022-12-09T08:30:41.854Z,100.00
2022-12-09T08:35:45.752Z,100.00
2022-12-09T08:40:50.017Z,100.00
2022-12-09T08:45:53.204Z,100.00
2022-12-09T08:50:56.155Z,100.00
2022-12-09T08:56:00.673Z,100.00
2022-12-09T09:01:03.973Z,100.00
2022-12-09T09:06:10.749Z,100.00
2022-12-09T09:11:17.835Z,100.00
2022-12-09T09:16:22.880Z,100.00
2022-12-09T09:21:27.102Z,100.00
2022-12-09T09:26:31.845Z,100.00
2022-12-09T09:31:35.794Z,100.00
2022-12-09T09:36:39.067Z,100.00
2022-12-09T09:41:51.853Z,100.00
2022-12-09T09:46:56.564Z,100.00
2022-12-09T09:52:04.546Z,100.00
2022-12-09T09:57:15.947Z,100.00
2022-12-09T10:02:24.181Z,100.00
2022-12-09T10:07:32.594Z,100.00
2022-12-09T10:12:46.035Z,100.00
2022-12-09T10:17:53.460Z,100.00
2022-12-09T10:23:01.050Z,100.00
2022-12-09T10:28:10.281Z,100.00
2022-12-09T10:33:14.799Z,100.00
2022-12-09T10:38:20.279Z,100.00
2022-12-09T10:43:38.475Z,100.00
2022-12-09T10:48:44.596Z,100.00
2022-12-09T10:53:51.690Z,100.00
2022-12-09T10:59:11.457Z,100.00
2022-12-09T11:04:15.132Z,100.00
2022-12-09T11:09:24.204Z,100.00
2022-12-09T11:14:34.949Z,100.00
2022-12-09T11:19:39.890Z,100.00
2022-12-09T11:24:43.341Z,100.00
2022-12-09T11:29:47.563Z,100.00
2022-12-09T11:34:50.921Z,99.42
2022-12-09T11:39:54.066Z,94.66
2022-12-09T11:45:05.407Z,93.53
2022-12-09T11:50:19.069Z,92.65
2022-12-09T11:55:24.965Z,95.22
2022-12-09T12:00:35.329Z,93.60
2022-12-09T12:05:42.004Z,95.01
2022-12-09T12:10:48.773Z,97.17
2022-12-09T12:16:02.924Z,99.11
2022-12-09T12:21:22.194Z,99.94
2022-12-09T12:26:27.949Z,100.00
2022-12-09T12:31:50.903Z,100.00
2022-12-09T12:37:02.967Z,100.00
2022-12-09T12:42:19.942Z,100.00
2022-12-09T12:47:29.534Z,100.00
2022-12-09T12:52:55.943Z,100.00
2022-12-09T12:58:06.967Z,100.00
2022-12-09T13:03:22.911Z,100.00
2022-12-09T13:08:34.406Z,100.00
2022-12-09T13:14:01.790Z,100.00
2022-12-09T13:19:16.936Z,100.00
2022-12-09T13:24:27.328Z,100.00
2022-12-09T13:29:40.110Z,100.00
2022-12-09T13:34:49.941Z,100.00
2022-12-09T13:39:58.190Z,99.46
2022-12-09T13:45:06.679Z,98.87
2022-12-09T13:50:23.795Z,98.58
2022-12-09T13:55:33.784Z,98.37
2022-12-09T14:00:36.727Z,97.29
2022-12-09T14:05:41.318Z,98.47
2022-12-09T14:10:47.705Z,100.00
2022-12-09T14:16:25.972Z,99.15
2022-12-09T14:21:33.465Z,99.59
2022-12-09T14:26:37.481Z,100.00
2022-12-09T14:32:02.667Z,100.00
2022-12-09T14:37:27.744Z,100.00
2022-12-09T14:42:44.781Z,100.00
2022-12-09T14:47:48.750Z,100.00
2022-12-09T14:52:55.414Z,100.00
2022-12-09T14:58:01.023Z,100.00
2022-12-09T15:08:31.849Z,100.00
2022-12-09T15:13:37.307Z,100.00
2022-12-09T15:18:42.619Z,100.00
2022-12-09T15:23:47.042Z,100.00
2022-12-09T15:28:52.747Z,100.00
2022-12-09T15:33:57.139Z,100.00
2022-12-09T15:39:06.729Z,100.00
2022-12-09T15:44:17.041Z,100.00
2022-12-09T15:49:24.116Z,100.00
2022-12-09T15:54:33.121Z,100.00
2022-12-09T15:59:40.080Z,100.00
2022-12-09T16:04:45.757Z,100.00
2022-12-09T16:10:04.766Z,100.00
2022-12-09T16:15:10.032Z,100.00
2022-12-09T16:20:32.715Z,100.00
2022-12-09T16:25:42.291Z,100.00
2022-12-09T16:30:46.752Z,100.00
2022-12-09T16:35:59.527Z,100.00
2022-12-09T16:41:12.381Z,100.00
2022-12-09T16:46:38.439Z,100.00
2022-12-09T16:51:41.693Z,100.00
2022-12-09T16:56:46.147Z,100.00
2022-12-09T17:01:49.021Z,100.00
2022-12-09T17:06:52.128Z,100.00
2022-12-09T17:11:56.236Z,100.00
2022-12-09T17:17:00.123Z,100.00
2022-12-09T17:22:03.244Z,100.00
2022-12-09T17:27:07.519Z,100.00
2022-12-09T17:32:10.303Z,100.00
2022-12-09T17:37:13.142Z,100.00
2022-12-09T17:42:17.440Z,100.00
2022-12-09T17:47:20.372Z,100.00
2022-12-09T17:52:23.316Z,100.00
2022-12-09T17:57:27.521Z,100.00
2022-12-09T18:02:30.415Z,100.00
2022-12-09T18:07:33.361Z,100.00
2022-12-09T18:12:37.471Z,100.00
2022-12-09T18:17:40.328Z,100.00
2022-12-09T18:22:43.112Z,100.00
2022-12-09T18:27:47.313Z,100.00
2022-12-09T18:32:52.866Z,100.00
2022-12-09T18:38:06.010Z,100.00
2022-12-09T18:50:19.409Z,100.00
2022-12-09T18:56:20.819Z,100.00
2022-12-09T19:08:17.062Z,100.00
2022-12-09T19:13:19.875Z,100.00
2022-12-09T19:18:24.089Z,100.00
2022-12-09T19:23:32.434Z,100.00
2022-12-09T19:28:35.361Z,100.00
2022-12-09T20:13:59.945Z,100.00
2022-12-09T20:19:03.078Z,100.00
2022-12-09T20:24:06.593Z,100.00
2022-12-09T20:29:12.342Z,100.00
2022-12-09T20:34:17.966Z,100.00
2022-12-09T20:39:22.151Z,100.00
2022-12-09T20:44:29.192Z,100.00
2022-12-09T20:49:35.173Z,100.00
2022-12-09T20:54:38.034Z,100.00
2022-12-09T20:59:42.247Z,100.00
2022-12-09T21:04:46.023Z,100.00
2022-12-09T21:09:48.889Z,100.00
2022-12-09T21:14:53.074Z,100.00
2022-12-09T21:19:55.861Z,100.00
2022-12-09T21:24:58.680Z,100.00
2022-12-09T21:30:02.903Z,100.00
2022-12-09T21:35:06.659Z,100.00
2022-12-09T21:40:10.664Z,100.00
2022-12-09T21:45:15.276Z,100.00
2022-12-09T21:50:18.520Z,100.00
2022-12-09T21:55:22.335Z,100.00
2022-12-09T22:00:26.637Z,100.00
2022-12-09T22:05:29.467Z,100.00
2022-12-09T22:10:32.310Z,100.00
2022-12-09T22:15:37.756Z,100.00
2022-12-09T22:26:06.197Z,100.00
2022-12-09T22:31:11.719Z,100.00
2022-12-09T22:36:15.298Z,100.00
2022-12-09T22:41:20.875Z,100.00
2022-12-09T22:46:27.797Z,100.00
2022-12-09T22:51:33.478Z,100.00
2022-12-09T22:56:41.465Z,100.00
2022-12-09T23:01:47.670Z,100.00
2022-12-09T23:06:51.405Z,100.00
2022-12-09T23:11:54.750Z,100.00
2022-12-09T23:16:58.846Z,100.00
2022-12-09T23:22:02.319Z,100.00
2022-12-09T23:27:05.900Z,100.00
2022-12-09T23:32:10.133Z,100.00
2022-12-09T23:37:14.221Z,100.00
2022-12-09T23:42:17.396Z,100.00
2022-12-09T23:47:21.567Z,100.00
2022-12-09T23:52:24.299Z,100.00
2022-12-09T23:57:27.032Z,100.00
